СИЛА РОССИИ. Форум сайта «Отвага» (www.otvaga2004.ru)

Информация о пользователе

Привет, Гость! Войдите или зарегистрируйтесь.


Вы здесь » СИЛА РОССИИ. Форум сайта «Отвага» (www.otvaga2004.ru) » Вооружение сухопутных войск


Вооружение сухопутных войск

Тем 61 страница 90 из 212

Тема Ответов Просмотров Последнее сообщение
4 1381 2021-02-05 11:23:19  mr_tank
249 37219 2021-01-05 14:54:46  Oleg7700
87 32870 2020-12-04 17:29:49  Механический кот
64 Закрыта Противотанковые средства 6  finnbogi  [ 1 2 3  41 ]
1224 83845 2020-11-02 23:25:40  Retiv
65 Закрыта Пулеметы-8  KORVIN  [ 1 2 3  38 ]
1133 126272 2020-10-30 21:22:50  Мак Сим
66 Закрыта Вооруженные силы: общие вопросы 4  Realist  [ 1 2 3  38 ]
1130 77703 2020-10-25 09:26:31  отрохов
67 Закрыта Средства ПВО-9  ДимитриUS  [ 1 2 3  40 ]
1190 124806 2020-10-22 21:29:22  Blitz.
1494 146829 2020-10-19 17:10:14  Wind
69 Закрыта Средства ПВО - 8  kinetic  [ 1 2 3  34 ]
1008 111914 2020-09-25 21:59:29  Oleg7700
70 РЛС разведки  Astax  [ 1 2 ]
50 12850 2020-08-29 11:54:15  Василий_Пупкин_123
71 Оружейные и околооружейные новости  Хорт мохнатый  [ 1 2 3  17 ]
501 62237 2020-08-09 19:41:11  Viktory
72 вопрос про КПВТ  Нихтферштейн
7 1553 2020-06-13 21:26:23  Blitz.
20 4130 2020-05-17 10:47:45  Astax
74 Околовоенные новости  Zaklepkin  [ 1 2 3  11 ]
305 31798 2020-04-23 17:57:51  Viktory
999 92364 2019-10-23 17:29:42  __Memento_mori__
999 12375 2019-10-06 20:55:16  sasa
999 10932 2019-09-18 21:47:26  sasa
78 Пистолеты-3  KORVIN  [ 1 2 3  34 ]
999 62264 2019-09-13 01:22:27  KORVIN
79 Какими должны быть ВДВ? - 4  Сергей-1982  [ 1 2 3  34 ]
999 10668 2019-09-04 15:47:16  8569
0 547 2019-08-25 11:15:20  sasa
999 26933 2019-08-25 10:29:39  finnbogi
82 Инженерные войска.  Виталий Иванович (PQ)  [ 1 2 3  18 ]
528 64718 2019-07-02 07:49:51  NoName
83 Народно-освободительная армия Китая 2  Виталий Иванович (PQ)  [ 1 2 3  34 ]
999 94438 2019-06-17 19:39:53  Абалкин
1 793 2019-06-08 04:21:05  GRU
85 Противотанковые средства 6  Атабек  [ 1 2 3  34 ]
995 69984 2019-06-05 17:01:35  Шестопер
86 Экспорт оружия.  Сергей-1982
0 483 2019-06-03 14:57:14  Сергей-1982
488 13555 2019-05-13 19:22:07  Абалкин
61 7247 2019-05-11 23:10:37  vasya83
34 6471 2019-04-28 22:26:31  Medved_A
999 70385 2019-04-05 11:59:50  Арсений80

Вы здесь » СИЛА РОССИИ. Форум сайта «Отвага» (www.otvaga2004.ru) » Вооружение сухопутных войск